TimeBST,TemperatureF,Dew PointF,Humidity,Sea Level PressureIn,VisibilityMPH,Wind Direction,Wind SpeedMPH,Gust SpeedMPH,PrecipitationIn,Events,Conditions,WindDirDegrees,DateUTC
1:00 AM,63,54,63,30.13,19,East,11.5,,,,Partly Cloudy,80,2013-08-22 00:00:00
3:50 AM,64.4,53.6,68,30.09,-9999.0,East,12.7,-,N/A,,Clear,80,2013-08-22 02:50:00
4:20 AM,64.4,55.4,73,30.09,-9999.0,East,13.8,-,N/A,,Clear,80,2013-08-22 03:20:00
4:50 AM,62.6,57.2,82,30.06,-9999.0,East,13.8,-,N/A,,Clear,90,2013-08-22 03:50:00
5:20 AM,62.6,57.2,82,30.06,-9999.0,East,10.4,-,N/A,,Clear,90,2013-08-22 04:20:00
5:50 AM,62.6,57.2,82,30.06,-9999.0,East,12.7,-,N/A,,Clear,100,2013-08-22 04:50:00
6:20 AM,62.6,57.2,82,30.06,-9999.0,East,10.4,-,N/A,,Clear,90,2013-08-22 05:20:00
6:50 AM,62.6,57.2,82,30.06,-9999.0,East,11.5,-,N/A,,Clear,80,2013-08-22 05:50:00
7:00 AM,62,58,81,30.08,16,ENE,9.2,,,,Scattered Clouds,70,2013-08-22 06:00:00
7:20 AM,62.6,59.0,88,30.06,-9999.0,East,10.4,-,N/A,,Clear,80,2013-08-22 06:20:00
7:50 AM,64.4,59.0,83,30.06,6.2,East,11.5,-,N/A,,Partly Cloudy,80,2013-08-22 06:50:00
8:20 AM,66.2,59.0,78,30.06,6.2,East,13.8,-,N/A,,Partly Cloudy,80,2013-08-22 07:20:00
8:50 AM,66.2,59.0,78,30.06,6.2,East,13.8,-,N/A,,Partly Cloudy,90,2013-08-22 07:50:00
9:20 AM,68.0,59.0,73,30.06,-9999.0,East,12.7,-,N/A,,Clear,90,2013-08-22 08:20:00
9:50 AM,71.6,57.2,60,30.06,-9999.0,East,8.1,-,N/A,,Clear,100,2013-08-22 08:50:00
10:00 AM,71,57,51,30.06,16,East,9.2,,,,Scattered Clouds,90,2013-08-22 09:00:00
10:20 AM,73.4,57.2,57,30.06,-9999.0,ESE,9.2,-,N/A,,Clear,120,2013-08-22 09:20:00
10:50 AM,75.2,57.2,53,30.06,-9999.0,East,11.5,-,N/A,,Clear,100,2013-08-22 09:50:00
11:20 AM,77.0,55.4,47,30.04,-9999.0,East,15.0,-,N/A,,Clear,100,2013-08-22 10:20:00
11:50 AM,77.0,55.4,47,30.04,-9999.0,East,12.7,-,N/A,,Clear,90,2013-08-22 10:50:00
12:20 PM,78.8,53.6,42,30.04,-9999.0,ENE,11.5,-,N/A,,Clear,70,2013-08-22 11:20:00
12:50 PM,78.8,53.6,42,30.04,-9999.0,East,11.5,-,N/A,,Clear,100,2013-08-22 11:50:00
1:20 PM,78.8,53.6,42,30.04,-9999.0,ESE,18.4,-,N/A,,Clear,110,2013-08-22 12:20:00
1:50 PM,80.6,53.6,39,30.01,-9999.0,East,11.5,-,N/A,,Clear,80,2013-08-22 12:50:00
2:20 PM,80.6,53.6,39,30.01,-9999.0,ESE,15.0,-,N/A,,Clear,120,2013-08-22 13:20:00
2:50 PM,80.6,55.4,42,30.01,-9999.0,SE,11.5,-,N/A,,Clear,140,2013-08-22 13:50:00
3:20 PM,80.6,57.2,45,30.01,-9999.0,NE,10.4,-,N/A,,Clear,50,2013-08-22 14:20:00
3:50 PM,80.6,57.2,45,30.01,-9999.0,East,10.4,-,N/A,,Clear,80,2013-08-22 14:50:00
4:00 PM,79,57,36,29.99,19,ENE,10.4,,,,Scattered Clouds,60,2013-08-22 15:00:00
4:20 PM,78.8,57.2,47,30.01,-9999.0,ENE,12.7,-,N/A,,Clear,70,2013-08-22 15:20:00
4:50 PM,78.8,57.2,47,29.98,-9999.0,ENE,10.4,-,N/A,,Clear,70,2013-08-22 15:50:00
5:20 PM,78.8,57.2,47,29.98,-9999.0,East,11.5,-,N/A,,Clear,80,2013-08-22 16:20:00
5:50 PM,77.0,57.2,50,29.98,-9999.0,ENE,9.2,-,N/A,,Clear,70,2013-08-22 16:50:00
6:20 PM,77.0,57.2,50,29.98,-9999.0,ENE,9.2,-,N/A,,Clear,70,2013-08-22 17:20:00
6:50 PM,75.2,57.2,53,29.98,-9999.0,ENE,10.4,-,N/A,,Clear,60,2013-08-22 17:50:00
7:00 PM,75,57,44,29.96,19,NE,9.2,,,,Clear,50,2013-08-22 18:00:00
7:20 PM,73.4,57.2,57,29.98,-9999.0,ENE,6.9,-,N/A,,Clear,60,2013-08-22 18:20:00
7:50 PM,71.6,57.2,60,29.98,-9999.0,ENE,9.2,-,N/A,,Clear,60,2013-08-22 18:50:00
8:20 PM,69.8,57.2,64,29.98,-9999.0,NE,6.9,-,N/A,,Clear,50,2013-08-22 19:20:00
8:50 PM,69.8,57.2,64,29.98,-9999.0,ENE,6.9,-,N/A,,Clear,70,2013-08-22 19:50:00
9:20 PM,68.0,57.2,68,29.98,-9999.0,ENE,6.9,-,N/A,,Clear,70,2013-08-22 20:20:00
10:00 PM,69,58,61,29.98,22,ENE,11.5,,,,Clear,70,2013-08-22 21:00:00